sensor_id;sensor_type;location;lat;lon;timestamp;temperature;humidity
5828;DHT22;42583;50.240;8.444;2023-10-13T00:02:31;15.60;99.90
5828;DHT22;42583;50.240;8.444;2023-10-13T00:17:31;15.60;99.90
5828;DHT22;42583;50.240;8.444;2023-10-13T00:32:32;15.60;99.90
5828;DHT22;42583;50.240;8.444;2023-10-13T00:47:33;15.70;99.90
5828;DHT22;42583;50.240;8.444;2023-10-13T01:02:36;15.70;99.90
5828;DHT22;42583;50.240;8.444;2023-10-13T01:17:37;15.80;99.90
5828;DHT22;42583;50.240;8.444;2023-10-13T01:32:37;15.80;99.90
5828;DHT22;42583;50.240;8.444;2023-10-13T01:47:41;15.80;99.90
5828;DHT22;42583;50.240;8.444;2023-10-13T02:02:42;15.80;99.90
5828;DHT22;42583;50.240;8.444;2023-10-13T02:17:45;15.80;99.90
5828;DHT22;42583;50.240;8.444;2023-10-13T02:32:45;15.70;99.90
5828;DHT22;42583;50.240;8.444;2023-10-13T02:47:46;15.60;99.90
5828;DHT22;42583;50.240;8.444;2023-10-13T03:03:06;15.70;99.90
5828;DHT22;42583;50.240;8.444;2023-10-13T03:18:08;15.80;99.90
5828;DHT22;42583;50.240;8.444;2023-10-13T03:33:15;15.90;99.90
5828;DHT22;42583;50.240;8.444;2023-10-13T03:48:26;15.90;99.90
5828;DHT22;42583;50.240;8.444;2023-10-13T04:03:27;15.80;99.90
5828;DHT22;42583;50.240;8.444;2023-10-13T04:18:43;15.70;99.90
5828;DHT22;42583;50.240;8.444;2023-10-13T04:33:55;15.70;99.90
5828;DHT22;42583;50.240;8.444;2023-10-13T04:49:02;15.80;99.90
5828;DHT22;42583;50.240;8.444;2023-10-13T05:04:10;15.90;99.90
5828;DHT22;42583;50.240;8.444;2023-10-13T05:19:22;16.00;99.90
5828;DHT22;42583;50.240;8.444;2023-10-13T05:34:42;16.00;99.90
5828;DHT22;42583;50.240;8.444;2023-10-13T05:50:01;16.00;99.90
5828;DHT22;42583;50.240;8.444;2023-10-13T06:05:27;15.80;99.90
5828;DHT22;42583;50.240;8.444;2023-10-13T06:20:47;15.80;99.90
5828;DHT22;42583;50.240;8.444;2023-10-13T06:36:06;15.80;99.90
5828;DHT22;42583;50.240;8.444;2023-10-13T06:51:09;15.90;99.90
5828;DHT22;42583;50.240;8.444;2023-10-13T07:06:22;15.80;99.90
5828;DHT22;42583;50.240;8.444;2023-10-13T07:21:22;15.80;99.90
5828;DHT22;42583;50.240;8.444;2023-10-13T07:36:31;15.80;99.90
5828;DHT22;42583;50.240;8.444;2023-10-13T07:51:39;15.80;99.90
5828;DHT22;42583;50.240;8.444;2023-10-13T08:06:46;15.70;99.90
5828;DHT22;42583;50.240;8.444;2023-10-13T08:21:47;15.80;99.90
5828;DHT22;42583;50.240;8.444;2023-10-13T08:37:14;15.90;99.90
5828;DHT22;42583;50.240;8.444;2023-10-13T08:52:38;15.90;99.90
5828;DHT22;42583;50.240;8.444;2023-10-13T09:07:49;16.60;99.90
5828;DHT22;42583;50.240;8.444;2023-10-13T09:22:51;17.20;99.90
5828;DHT22;42583;50.240;8.444;2023-10-13T09:38:04;18.00;99.90
5828;DHT22;42583;50.240;8.444;2023-10-13T09:53:05;17.80;99.90
5828;DHT22;42583;50.240;8.444;2023-10-13T10:08:10;17.60;99.90
5828;DHT22;42583;50.240;8.444;2023-10-13T10:23:24;17.50;99.90
5828;DHT22;42583;50.240;8.444;2023-10-13T10:38:24;17.90;99.90
5828;DHT22;42583;50.240;8.444;2023-10-13T10:53:34;18.90;99.90
5828;DHT22;42583;50.240;8.444;2023-10-13T11:08:43;18.90;99.90
5828;DHT22;42583;50.240;8.444;2023-10-13T11:23:57;19.00;99.90
5828;DHT22;42583;50.240;8.444;2023-10-13T11:38:59;19.80;99.90
5828;DHT22;42583;50.240;8.444;2023-10-13T11:54:00;19.80;99.90
5828;DHT22;42583;50.240;8.444;2023-10-13T12:09:01;21.60;96.90
5828;DHT22;42583;50.240;8.444;2023-10-13T12:24:20;21.50;94.00
5828;DHT22;42583;50.240;8.444;2023-10-13T12:39:36;20.40;93.90
5828;DHT22;42583;50.240;8.444;2023-10-13T14:25:54;20.00;93.90
5828;DHT22;42583;50.240;8.444;2023-10-13T14:40:58;21.20;90.90
5828;DHT22;42583;50.240;8.444;2023-10-13T14:56:01;24.50;81.50
5828;DHT22;42583;50.240;8.444;2023-10-13T15:11:09;27.20;62.50
5828;DHT22;42583;50.240;8.444;2023-10-13T15:26:13;27.40;54.30
5828;DHT22;42583;50.240;8.444;2023-10-13T15:41:23;25.70;54.70
5828;DHT22;42583;50.240;8.444;2023-10-13T15:56:24;23.00;61.50
5828;DHT22;42583;50.240;8.444;2023-10-13T16:11:24;21.90;65.00
5828;DHT22;42583;50.240;8.444;2023-10-13T16:26:25;21.20;64.90
5828;DHT22;42583;50.240;8.444;2023-10-13T16:41:25;20.60;66.50
5828;DHT22;42583;50.240;8.444;2023-10-13T16:56:27;20.60;65.30
5828;DHT22;42583;50.240;8.444;2023-10-13T17:11:27;20.60;64.20
5828;DHT22;42583;50.240;8.444;2023-10-13T17:26:28;20.60;60.60
5828;DHT22;42583;50.240;8.444;2023-10-13T17:41:30;20.80;57.70
5828;DHT22;42583;50.240;8.444;2023-10-13T17:56:32;21.00;56.00
5828;DHT22;42583;50.240;8.444;2023-10-13T18:11:33;20.90;54.70
5828;DHT22;42583;50.240;8.444;2023-10-13T18:26:34;20.90;54.30
5828;DHT22;42583;50.240;8.444;2023-10-13T18:41:35;20.80;53.80
5828;DHT22;42583;50.240;8.444;2023-10-13T18:56:36;20.80;53.00
5828;DHT22;42583;50.240;8.444;2023-10-13T19:11:38;20.60;53.40
5828;DHT22;42583;50.240;8.444;2023-10-13T19:26:41;20.40;53.70
5828;DHT22;42583;50.240;8.444;2023-10-13T19:41:44;20.40;53.80
5828;DHT22;42583;50.240;8.444;2023-10-13T19:56:44;20.20;54.40
5828;DHT22;42583;50.240;8.444;2023-10-13T20:11:45;20.10;54.90
5828;DHT22;42583;50.240;8.444;2023-10-13T20:26:46;20.00;56.00
5828;DHT22;42583;50.240;8.444;2023-10-13T20:41:47;20.00;57.60
5828;DHT22;42583;50.240;8.444;2023-10-13T20:56:49;19.80;58.60
5828;DHT22;42583;50.240;8.444;2023-10-13T21:11:50;19.70;60.00
5828;DHT22;42583;50.240;8.444;2023-10-13T21:26:50;19.60;61.80
5828;DHT22;42583;50.240;8.444;2023-10-13T21:41:51;19.30;65.80
5828;DHT22;42583;50.240;8.444;2023-10-13T21:56:52;19.10;68.00
5828;DHT22;42583;50.240;8.444;2023-10-13T22:11:53;18.80;71.80
5828;DHT22;42583;50.240;8.444;2023-10-13T22:26:55;18.80;72.50
5828;DHT22;42583;50.240;8.444;2023-10-13T22:41:55;18.70;73.90
5828;DHT22;42583;50.240;8.444;2023-10-13T22:56:58;18.50;77.40
5828;DHT22;42583;50.240;8.444;2023-10-13T23:11:59;18.30;80.10
5828;DHT22;42583;50.240;8.444;2023-10-13T23:27:06;18.30;81.90
5828;DHT22;42583;50.240;8.444;2023-10-13T23:42:07;18.40;83.10
5828;DHT22;42583;50.240;8.444;2023-10-13T23:57:08;18.30;83.90
